sensor_id;sensor_type;location;lat;lon;timestamp;pressure;altitude;pressure_sealevel;temperature;humidity
66742;BME280;53654;54.152;19.432;2022-10-16T00:01:43;101316.50;;;15.08;87.07
66742;BME280;53654;54.152;19.432;2022-10-16T00:04:12;101316.15;;;15.08;86.96
66742;BME280;53654;54.152;19.432;2022-10-16T00:06:41;101315.63;;;15.08;87.09
66742;BME280;53654;54.152;19.432;2022-10-16T00:09:09;101312.45;;;15.08;86.94
66742;BME280;53654;54.152;19.432;2022-10-16T00:11:39;101308.95;;;15.08;87.00
66742;BME280;53654;54.152;19.432;2022-10-16T00:14:13;101307.39;;;15.07;86.91
66742;BME280;53654;54.152;19.432;2022-10-16T00:16:42;101306.18;;;15.06;87.05
66742;BME280;53654;54.152;19.432;2022-10-16T00:19:10;101308.45;;;15.06;87.01
66742;BME280;53654;54.152;19.432;2022-10-16T00:21:39;101316.16;;;15.08;86.99
66742;BME280;53654;54.152;19.432;2022-10-16T00:24:09;101322.83;;;15.09;87.14
66742;BME280;53654;54.152;19.432;2022-10-16T00:26:38;101322.11;;;15.09;87.21
66742;BME280;53654;54.152;19.432;2022-10-16T00:29:07;101326.48;;;15.10;87.23
66742;BME280;53654;54.152;19.432;2022-10-16T00:31:36;101329.30;;;15.10;87.27
66742;BME280;53654;54.152;19.432;2022-10-16T00:34:04;101330.52;;;15.10;87.19
66742;BME280;53654;54.152;19.432;2022-10-16T00:36:32;101326.15;;;15.09;87.20
66742;BME280;53654;54.152;19.432;2022-10-16T00:39:01;101325.27;;;15.09;87.28
66742;BME280;53654;54.152;19.432;2022-10-16T00:41:30;101331.63;;;15.08;87.27
66742;BME280;53654;54.152;19.432;2022-10-16T00:44:00;101327.27;;;15.05;87.30
66742;BME280;53654;54.152;19.432;2022-10-16T00:46:37;101324.67;;;15.04;87.38
66742;BME280;53654;54.152;19.432;2022-10-16T00:51:41;101321.74;;;15.00;87.36
66742;BME280;53654;54.152;19.432;2022-10-16T00:54:16;101324.92;;;14.99;87.46
66742;BME280;53654;54.152;19.432;2022-10-16T00:56:45;101323.05;;;14.96;87.50
66742;BME280;53654;54.152;19.432;2022-10-16T00:59:19;101322.68;;;14.97;87.43
66742;BME280;53654;54.152;19.432;2022-10-16T01:01:48;101324.27;;;14.97;87.35
66742;BME280;53654;54.152;19.432;2022-10-16T01:04:16;101323.05;;;14.96;87.35
66742;BME280;53654;54.152;19.432;2022-10-16T01:09:36;101317.08;;;14.96;87.16
66742;BME280;53654;54.152;19.432;2022-10-16T01:15:01;101320.15;;;14.91;87.16
66742;BME280;53654;54.152;19.432;2022-10-16T01:17:45;101326.70;;;14.89;87.25
66742;BME280;53654;54.152;19.432;2022-10-16T01:31:10;101330.34;;;14.81;87.56
66742;BME280;53654;54.152;19.432;2022-10-16T01:33:46;101326.98;;;14.81;87.69
66742;BME280;53654;54.152;19.432;2022-10-16T01:36:18;101320.70;;;14.80;87.56
66742;BME280;53654;54.152;19.432;2022-10-16T01:38:52;101312.76;;;14.82;87.66
66742;BME280;53654;54.152;19.432;2022-10-16T01:41:52;101313.10;;;14.82;87.76
66742;BME280;53654;54.152;19.432;2022-10-16T01:44:24;101311.21;;;14.80;87.73
66742;BME280;53654;54.152;19.432;2022-10-16T01:46:54;101319.65;;;14.79;87.81
66742;BME280;53654;54.152;19.432;2022-10-16T01:49:25;101325.23;;;14.82;87.86
66742;BME280;53654;54.152;19.432;2022-10-16T01:51:56;101328.02;;;14.83;87.77
66742;BME280;53654;54.152;19.432;2022-10-16T01:54:30;101326.92;;;14.85;87.82
66742;BME280;53654;54.152;19.432;2022-10-16T01:57:01;101332.69;;;14.87;87.69
66742;BME280;53654;54.152;19.432;2022-10-16T01:59:31;101336.17;;;14.89;87.65
66742;BME280;53654;54.152;19.432;2022-10-16T02:02:06;101338.44;;;14.90;87.60
66742;BME280;53654;54.152;19.432;2022-10-16T02:04:43;101337.73;;;14.90;87.53
66742;BME280;53654;54.152;19.432;2022-10-16T02:07:12;101340.55;;;14.90;87.54
66742;BME280;53654;54.152;19.432;2022-10-16T02:09:40;101346.52;;;14.90;87.46
66742;BME280;53654;54.152;19.432;2022-10-16T02:12:13;101352.27;;;14.92;87.55
66742;BME280;53654;54.152;19.432;2022-10-16T02:14:43;101355.24;;;14.93;87.52
66742;BME280;53654;54.152;19.432;2022-10-16T02:17:13;101352.59;;;14.95;87.45
66742;BME280;53654;54.152;19.432;2022-10-16T02:19:44;101346.45;;;14.95;87.27
66742;BME280;53654;54.152;19.432;2022-10-16T02:22:32;101345.93;;;14.94;87.35
66742;BME280;53654;54.152;19.432;2022-10-16T02:28:07;101354.94;;;14.91;87.43
66742;BME280;53654;54.152;19.432;2022-10-16T02:30:40;101352.89;;;14.87;87.41
66742;BME280;53654;54.152;19.432;2022-10-16T02:33:12;101352.36;;;14.87;87.68
66742;BME280;53654;54.152;19.432;2022-10-16T02:35:43;101350.62;;;14.87;87.65
66742;BME280;53654;54.152;19.432;2022-10-16T02:38:14;101351.47;;;14.88;87.64
66742;BME280;53654;54.152;19.432;2022-10-16T02:40:42;101353.92;;;14.88;87.59
66742;BME280;53654;54.152;19.432;2022-10-16T02:43:11;101360.76;;;14.89;87.65
66742;BME280;53654;54.152;19.432;2022-10-16T02:45:40;101360.59;;;14.89;87.70
66742;BME280;53654;54.152;19.432;2022-10-16T02:48:08;101365.14;;;14.91;87.71
66742;BME280;53654;54.152;19.432;2022-10-16T02:50:36;101364.90;;;14.94;87.75
66742;BME280;53654;54.152;19.432;2022-10-16T02:53:04;101360.27;;;14.97;87.65
66742;BME280;53654;54.152;19.432;2022-10-16T02:55:32;101356.91;;;14.98;87.45
66742;BME280;53654;54.152;19.432;2022-10-16T02:58:00;101355.17;;;14.97;87.36
66742;BME280;53654;54.152;19.432;2022-10-16T03:00:28;101357.45;;;14.98;87.31
66742;BME280;53654;54.152;19.432;2022-10-16T03:02:56;101358.52;;;14.97;87.30
66742;BME280;53654;54.152;19.432;2022-10-16T03:05:24;101362.20;;;14.97;87.29
66742;BME280;53654;54.152;19.432;2022-10-16T03:07:52;101358.50;;;14.98;87.27
66742;BME280;53654;54.152;19.432;2022-10-16T03:10:20;101356.02;;;14.99;87.21
66742;BME280;53654;54.152;19.432;2022-10-16T03:12:48;101355.66;;;15.00;87.07
66742;BME280;53654;54.152;19.432;2022-10-16T03:15:16;101350.21;;;15.00;87.11
66742;BME280;53654;54.152;19.432;2022-10-16T03:17:44;101353.91;;;15.00;87.06
66742;BME280;53654;54.152;19.432;2022-10-16T03:20:12;101353.02;;;15.00;87.00
66742;BME280;53654;54.152;19.432;2022-10-16T03:22:40;101356.20;;;15.00;87.02
66742;BME280;53654;54.152;19.432;2022-10-16T03:25:08;101354.42;;;15.00;87.03
66742;BME280;53654;54.152;19.432;2022-10-16T03:27:36;101352.13;;;15.01;86.97
66742;BME280;53654;54.152;19.432;2022-10-16T03:30:05;101348.64;;;15.00;86.80
66742;BME280;53654;54.152;19.432;2022-10-16T03:32:33;101352.52;;;14.98;86.89
66742;BME280;53654;54.152;19.432;2022-10-16T03:35:02;101356.58;;;14.97;86.96
66742;BME280;53654;54.152;19.432;2022-10-16T03:37:31;101352.75;;;14.95;86.99
66742;BME280;53654;54.152;19.432;2022-10-16T03:39:58;101354.86;;;14.95;86.97
66742;BME280;53654;54.152;19.432;2022-10-16T03:42:26;101360.14;;;14.95;86.94
66742;BME280;53654;54.152;19.432;2022-10-16T03:44:54;101363.50;;;14.94;86.86
66742;BME280;53654;54.152;19.432;2022-10-16T03:47:22;101365.98;;;14.92;86.98
66742;BME280;53654;54.152;19.432;2022-10-16T03:49:52;101362.67;;;14.91;87.00
66742;BME280;53654;54.152;19.432;2022-10-16T03:52:20;101364.77;;;14.91;87.03
66742;BME280;53654;54.152;19.432;2022-10-16T03:54:48;101358.77;;;14.92;86.98
66742;BME280;53654;54.152;19.432;2022-10-16T03:57:16;101360.52;;;14.93;87.04
66742;BME280;53654;54.152;19.432;2022-10-16T03:59:44;101359.64;;;14.93;86.82
66742;BME280;53654;54.152;19.432;2022-10-16T04:02:12;101356.65;;;14.94;86.75
66742;BME280;53654;54.152;19.432;2022-10-16T04:04:40;101360.48;;;14.95;86.82
66742;BME280;53654;54.152;19.432;2022-10-16T04:07:08;101356.95;;;14.97;86.70
66742;BME280;53654;54.152;19.432;2022-10-16T04:09:36;101359.23;;;14.96;86.72
66742;BME280;53654;54.152;19.432;2022-10-16T04:12:04;101364.52;;;14.95;86.61
66742;BME280;53654;54.152;19.432;2022-10-16T04:14:32;101368.95;;;14.94;86.50
66742;BME280;53654;54.152;19.432;2022-10-16T04:17:00;101370.37;;;14.92;86.56
66742;BME280;53654;54.152;19.432;2022-10-16T04:19:28;101365.11;;;14.92;86.50
66742;BME280;53654;54.152;19.432;2022-10-16T04:21:56;101367.42;;;14.90;86.41
66742;BME280;53654;54.152;19.432;2022-10-16T04:24:24;101367.80;;;14.88;86.49
66742;BME280;53654;54.152;19.432;2022-10-16T04:26:52;101365.41;;;14.84;86.53
66742;BME280;53654;54.152;19.432;2022-10-16T04:29:20;101370.36;;;14.82;86.73
66742;BME280;53654;54.152;19.432;2022-10-16T04:31:48;101370.91;;;14.81;86.67
66742;BME280;53654;54.152;19.432;2022-10-16T04:34:16;101379.05;;;14.77;86.77
66742;BME280;53654;54.152;19.432;2022-10-16T04:36:47;101377.67;;;14.75;86.79
66742;BME280;53654;54.152;19.432;2022-10-16T04:39:16;101372.95;;;14.74;86.82
66742;BME280;53654;54.152;19.432;2022-10-16T04:41:44;101365.64;;;14.70;87.02
66742;BME280;53654;54.152;19.432;2022-10-16T04:44:12;101358.91;;;14.62;87.26
66742;BME280;53654;54.152;19.432;2022-10-16T04:46:40;101355.60;;;14.61;87.16
66742;BME280;53654;54.152;19.432;2022-10-16T04:49:08;101356.56;;;14.56;87.53
66742;BME280;53654;54.152;19.432;2022-10-16T04:51:36;101360.96;;;14.54;87.45
66742;BME280;53654;54.152;19.432;2022-10-16T04:54:04;101363.45;;;14.52;87.52
66742;BME280;53654;54.152;19.432;2022-10-16T04:56:32;101355.71;;;14.54;87.41
66742;BME280;53654;54.152;19.432;2022-10-16T04:59:00;101350.45;;;14.53;87.48
66742;BME280;53654;54.152;19.432;2022-10-16T05:01:28;101345.02;;;14.52;87.61
66742;BME280;53654;54.152;19.432;2022-10-16T05:03:56;101346.08;;;14.51;87.64
66742;BME280;53654;54.152;19.432;2022-10-16T05:06:24;101359.45;;;14.50;87.71
66742;BME280;53654;54.152;19.432;2022-10-16T05:08:52;101362.63;;;14.48;87.79
66742;BME280;53654;54.152;19.432;2022-10-16T05:11:20;101361.05;;;14.49;87.75
66742;BME280;53654;54.152;19.432;2022-10-16T05:13:48;101363.28;;;14.52;87.65
66742;BME280;53654;54.152;19.432;2022-10-16T05:16:22;101364.67;;;14.53;87.67
66742;BME280;53654;54.152;19.432;2022-10-16T05:18:51;101377.23;;;14.58;87.72
66742;BME280;53654;54.152;19.432;2022-10-16T05:21:36;101392.33;;;14.59;87.58
66742;BME280;53654;54.152;19.432;2022-10-16T05:24:04;101392.63;;;14.63;87.37
66742;BME280;53654;54.152;19.432;2022-10-16T05:26:32;101387.34;;;14.64;87.35
66742;BME280;53654;54.152;19.432;2022-10-16T05:29:00;101386.96;;;14.65;87.14
66742;BME280;53654;54.152;19.432;2022-10-16T05:31:29;101390.66;;;14.64;86.94
66742;BME280;53654;54.152;19.432;2022-10-16T05:34:01;101397.33;;;14.65;86.92
66742;BME280;53654;54.152;19.432;2022-10-16T05:36:29;101394.87;;;14.65;86.90
66742;BME280;53654;54.152;19.432;2022-10-16T05:38:57;101394.00;;;14.64;86.84
66742;BME280;53654;54.152;19.432;2022-10-16T05:41:25;101397.51;;;14.65;86.78
66742;BME280;53654;54.152;19.432;2022-10-16T05:43:53;101396.46;;;14.64;86.83
66742;BME280;53654;54.152;19.432;2022-10-16T05:46:22;101387.35;;;14.63;86.78
66742;BME280;53654;54.152;19.432;2022-10-16T05:48:52;101393.67;;;14.63;86.79
66742;BME280;53654;54.152;19.432;2022-10-16T05:51:20;101391.77;;;14.61;86.81
66742;BME280;53654;54.152;19.432;2022-10-16T05:53:48;101391.96;;;14.60;86.81
66742;BME280;53654;54.152;19.432;2022-10-16T05:56:16;101391.27;;;14.58;86.96
66742;BME280;53654;54.152;19.432;2022-10-16T05:58:44;101393.40;;;14.57;86.94
66742;BME280;53654;54.152;19.432;2022-10-16T06:01:15;101399.56;;;14.56;87.08
66742;BME280;53654;54.152;19.432;2022-10-16T06:03:44;101410.60;;;14.58;87.11
66742;BME280;53654;54.152;19.432;2022-10-16T06:06:14;101408.83;;;14.59;86.99
66742;BME280;53654;54.152;19.432;2022-10-16T06:08:44;101410.08;;;14.58;86.75
66742;BME280;53654;54.152;19.432;2022-10-16T06:11:18;101414.66;;;14.56;86.84
66742;BME280;53654;54.152;19.432;2022-10-16T06:13:56;101426.25;;;14.56;86.92
66742;BME280;53654;54.152;19.432;2022-10-16T06:16:25;101420.83;;;14.55;86.97
66742;BME280;53654;54.152;19.432;2022-10-16T06:18:55;101419.45;;;14.53;86.85
66742;BME280;53654;54.152;19.432;2022-10-16T06:21:28;101421.91;;;14.52;86.85
66742;BME280;53654;54.152;19.432;2022-10-16T06:23:57;101428.94;;;14.52;86.95
66742;BME280;53654;54.152;19.432;2022-10-16T06:26:28;101431.36;;;14.55;86.98
66742;BME280;53654;54.152;19.432;2022-10-16T06:28:58;101431.89;;;14.54;87.02
66742;BME280;53654;54.152;19.432;2022-10-16T06:31:27;101436.42;;;14.57;86.85
66742;BME280;53654;54.152;19.432;2022-10-16T06:33:59;101441.46;;;14.61;86.74
66742;BME280;53654;54.152;19.432;2022-10-16T06:36:27;101446.17;;;14.63;86.70
66742;BME280;53654;54.152;19.432;2022-10-16T06:38:56;101454.38;;;14.66;86.54
66742;BME280;53654;54.152;19.432;2022-10-16T06:41:24;101440.67;;;14.66;86.42
66742;BME280;53654;54.152;19.432;2022-10-16T06:43:52;101438.89;;;14.69;86.29
66742;BME280;53654;54.152;19.432;2022-10-16T06:46:22;101448.31;;;14.73;86.18
66742;BME280;53654;54.152;19.432;2022-10-16T06:48:52;101447.20;;;14.77;86.10
66742;BME280;53654;54.152;19.432;2022-10-16T06:51:21;101445.05;;;14.79;85.99
66742;BME280;53654;54.152;19.432;2022-10-16T06:53:52;101440.30;;;14.80;85.89
66742;BME280;53654;54.152;19.432;2022-10-16T06:56:32;101448.39;;;14.80;85.75
66742;BME280;53654;54.152;19.432;2022-10-16T06:59:00;101456.06;;;14.82;85.56
66742;BME280;53654;54.152;19.432;2022-10-16T07:01:29;101462.85;;;14.87;85.52
66742;BME280;53654;54.152;19.432;2022-10-16T07:03:58;101458.41;;;14.90;85.39
66742;BME280;53654;54.152;19.432;2022-10-16T07:06:26;101457.51;;;14.92;85.29
66742;BME280;53654;54.152;19.432;2022-10-16T07:08:55;101453.98;;;14.93;85.04
66742;BME280;53654;54.152;19.432;2022-10-16T07:11:23;101462.56;;;14.94;85.09
66742;BME280;53654;54.152;19.432;2022-10-16T07:13:51;101470.98;;;14.96;85.02
66742;BME280;53654;54.152;19.432;2022-10-16T07:16:26;101467.45;;;14.96;84.93
66742;BME280;53654;54.152;19.432;2022-10-16T07:18:59;101469.20;;;14.97;84.94
66742;BME280;53654;54.152;19.432;2022-10-16T07:21:30;101466.71;;;14.99;85.00
66742;BME280;53654;54.152;19.432;2022-10-16T07:23:59;101467.39;;;15.00;84.85
66742;BME280;53654;54.152;19.432;2022-10-16T07:26:31;101471.41;;;15.02;84.76
66742;BME280;53654;54.152;19.432;2022-10-16T07:29:00;101474.52;;;15.05;84.68
66742;BME280;53654;54.152;19.432;2022-10-16T07:31:29;101472.55;;;15.07;84.55
66742;BME280;53654;54.152;19.432;2022-10-16T07:33:59;101475.38;;;15.07;84.52
66742;BME280;53654;54.152;19.432;2022-10-16T07:36:27;101474.80;;;15.10;84.36
66742;BME280;53654;54.152;19.432;2022-10-16T07:38:56;101478.80;;;15.12;84.15
66742;BME280;53654;54.152;19.432;2022-10-16T07:41:27;101479.48;;;15.14;84.01
66742;BME280;53654;54.152;19.432;2022-10-16T07:43:56;101478.39;;;15.16;84.00
66742;BME280;53654;54.152;19.432;2022-10-16T07:46:28;101481.89;;;15.17;83.85
66742;BME280;53654;54.152;19.432;2022-10-16T07:48:56;101484.52;;;15.19;83.63
66742;BME280;53654;54.152;19.432;2022-10-16T07:51:25;101483.77;;;15.21;83.78
66742;BME280;53654;54.152;19.432;2022-10-16T07:53:54;101488.86;;;15.21;83.55
66742;BME280;53654;54.152;19.432;2022-10-16T07:56:22;101490.09;;;15.22;83.62
66742;BME280;53654;54.152;19.432;2022-10-16T07:58:51;101494.64;;;15.22;83.66
66742;BME280;53654;54.152;19.432;2022-10-16T08:01:20;101501.11;;;15.25;83.56
66742;BME280;53654;54.152;19.432;2022-10-16T08:03:50;101496.21;;;15.24;83.62
66742;BME280;53654;54.152;19.432;2022-10-16T08:06:20;101499.58;;;15.22;83.89
66742;BME280;53654;54.152;19.432;2022-10-16T08:08:55;101501.65;;;15.24;83.98
66742;BME280;53654;54.152;19.432;2022-10-16T08:11:23;101507.27;;;15.23;84.28
66742;BME280;53654;54.152;19.432;2022-10-16T08:13:51;101506.90;;;15.25;84.49
66742;BME280;53654;54.152;19.432;2022-10-16T08:16:20;101509.19;;;15.25;84.62
66742;BME280;53654;54.152;19.432;2022-10-16T08:18:49;101508.32;;;15.25;84.56
66742;BME280;53654;54.152;19.432;2022-10-16T08:21:21;101512.21;;;15.22;84.72
66742;BME280;53654;54.152;19.432;2022-10-16T08:23:52;101510.30;;;15.22;85.25
66742;BME280;53654;54.152;19.432;2022-10-16T08:26:26;101511.02;;;15.20;85.66
66742;BME280;53654;54.152;19.432;2022-10-16T08:28:55;101512.11;;;15.17;85.99
66742;BME280;53654;54.152;19.432;2022-10-16T08:31:24;101514.96;;;15.14;86.46
66742;BME280;53654;54.152;19.432;2022-10-16T08:33:54;101517.66;;;15.11;86.80
66742;BME280;53654;54.152;19.432;2022-10-16T08:36:22;101516.97;;;15.10;87.26
66742;BME280;53654;54.152;19.432;2022-10-16T08:38:50;101525.60;;;15.09;87.46
66742;BME280;53654;54.152;19.432;2022-10-16T08:44:35;101531.23;;;15.08;87.81
66742;BME280;53654;54.152;19.432;2022-10-16T08:47:31;101534.06;;;15.07;88.04
66742;BME280;53654;54.152;19.432;2022-10-16T08:50:12;101535.48;;;15.07;88.27
66742;BME280;53654;54.152;19.432;2022-10-16T08:52:43;101537.89;;;15.10;88.40
66742;BME280;53654;54.152;19.432;2022-10-16T08:55:28;101538.90;;;15.12;88.48
66742;BME280;53654;54.152;19.432;2022-10-16T08:57:58;101532.56;;;15.13;88.47
66742;BME280;53654;54.152;19.432;2022-10-16T09:00:27;101532.67;;;15.18;88.54
66742;BME280;53654;54.152;19.432;2022-10-16T09:04:07;101539.63;;;15.23;88.62
66742;BME280;53654;54.152;19.432;2022-10-16T09:06:31;101540.83;;;15.25;88.66
66742;BME280;53654;54.152;19.432;2022-10-16T09:15:16;101551.77;;;15.45;88.60
66742;BME280;53654;54.152;19.432;2022-10-16T09:17:59;101543.04;;;15.52;88.57
66742;BME280;53654;54.152;19.432;2022-10-16T09:23:29;101535.38;;;15.61;87.83
66742;BME280;53654;54.152;19.432;2022-10-16T09:25:59;101531.25;;;15.66;87.71
66742;BME280;53654;54.152;19.432;2022-10-16T09:28:27;101537.13;;;15.73;87.71
66742;BME280;53654;54.152;19.432;2022-10-16T09:30:55;101540.13;;;15.83;87.66
66742;BME280;53654;54.152;19.432;2022-10-16T09:33:27;101538.04;;;15.91;87.03
66742;BME280;53654;54.152;19.432;2022-10-16T09:35:57;101532.99;;;15.97;86.79
66742;BME280;53654;54.152;19.432;2022-10-16T09:38:32;101529.52;;;16.04;86.51
66742;BME280;53654;54.152;19.432;2022-10-16T09:41:20;101526.96;;;16.09;86.44
66742;BME280;53654;54.152;19.432;2022-10-16T09:44:00;101532.98;;;16.17;86.60
66742;BME280;53654;54.152;19.432;2022-10-16T09:48:59;101530.33;;;16.35;86.29
66742;BME280;53654;54.152;19.432;2022-10-16T09:54:02;101551.27;;;16.54;85.50
66742;BME280;53654;54.152;19.432;2022-10-16T09:56:33;101552.34;;;16.61;85.13
66742;BME280;53654;54.152;19.432;2022-10-16T10:01:45;101546.52;;;16.72;84.31
66742;BME280;53654;54.152;19.432;2022-10-16T10:04:15;101553.67;;;16.75;84.20
66742;BME280;53654;54.152;19.432;2022-10-16T10:06:46;101556.05;;;16.79;84.02
66742;BME280;53654;54.152;19.432;2022-10-16T10:09:25;101548.21;;;16.83;83.89
66742;BME280;53654;54.152;19.432;2022-10-16T10:17:09;101553.11;;;16.85;83.31
66742;BME280;53654;54.152;19.432;2022-10-16T10:19:48;101551.48;;;16.87;83.19
66742;BME280;53654;54.152;19.432;2022-10-16T10:25:26;101554.67;;;16.86;83.22
66742;BME280;53654;54.152;19.432;2022-10-16T10:28:47;101555.94;;;16.85;83.33
66742;BME280;53654;54.152;19.432;2022-10-16T10:31:36;101561.77;;;16.84;83.64
66742;BME280;53654;54.152;19.432;2022-10-16T10:34:39;101568.54;;;16.89;83.73
66742;BME280;53654;54.152;19.432;2022-10-16T10:50:39;101561.22;;;17.16;83.44
66742;BME280;53654;54.152;19.432;2022-10-16T10:53:28;101562.17;;;17.21;83.63
66742;BME280;53654;54.152;19.432;2022-10-16T10:58:56;101562.15;;;17.29;83.62
66742;BME280;53654;54.152;19.432;2022-10-16T11:07:04;101552.44;;;17.45;83.08
66742;BME280;53654;54.152;19.432;2022-10-16T11:09:36;101553.91;;;17.49;82.94
66742;BME280;53654;54.152;19.432;2022-10-16T11:12:15;101552.88;;;17.55;82.88
66742;BME280;53654;54.152;19.432;2022-10-16T11:14:50;101552.02;;;17.62;82.73
66742;BME280;53654;54.152;19.432;2022-10-16T11:17:23;101554.48;;;17.70;82.71
66742;BME280;53654;54.152;19.432;2022-10-16T11:20:16;101555.56;;;17.77;82.50
66742;BME280;53654;54.152;19.432;2022-10-16T11:25:33;101550.93;;;17.85;81.62
66742;BME280;53654;54.152;19.432;2022-10-16T11:28:37;101550.09;;;17.90;81.66
66742;BME280;53654;54.152;19.432;2022-10-16T11:36:49;101548.66;;;17.97;80.95
66742;BME280;53654;54.152;19.432;2022-10-16T11:39:24;101547.33;;;18.01;80.83
66742;BME280;53654;54.152;19.432;2022-10-16T11:45:49;101547.73;;;18.06;80.30
66742;BME280;53654;54.152;19.432;2022-10-16T11:47:46;101552.59;;;18.02;80.47
66742;BME280;53654;54.152;19.432;2022-10-16T11:56:28;101561.23;;;18.02;80.68
66742;BME280;53654;54.152;19.432;2022-10-16T11:59:10;101558.70;;;18.05;80.37
66742;BME280;53654;54.152;19.432;2022-10-16T12:01:50;101556.19;;;18.06;80.45
66742;BME280;53654;54.152;19.432;2022-10-16T12:04:26;101554.86;;;18.10;80.39
66742;BME280;53654;54.152;19.432;2022-10-16T12:07:09;101555.67;;;18.12;80.33
66742;BME280;53654;54.152;19.432;2022-10-16T12:09:41;101560.58;;;18.14;80.41
66742;BME280;53654;54.152;19.432;2022-10-16T12:15:28;101566.83;;;18.18;80.87
66742;BME280;53654;54.152;19.432;2022-10-16T12:18:24;101574.31;;;18.16;81.19
66742;BME280;53654;54.152;19.432;2022-10-16T12:20:59;101575.90;;;18.16;81.80
66742;BME280;53654;54.152;19.432;2022-10-16T12:23:36;101572.24;;;18.14;82.28
66742;BME280;53654;54.152;19.432;2022-10-16T12:26:05;101570.52;;;18.12;82.81
66742;BME280;53654;54.152;19.432;2022-10-16T12:28:34;101572.06;;;18.07;83.29
66742;BME280;53654;54.152;19.432;2022-10-16T12:31:06;101571.33;;;18.02;84.00
66742;BME280;53654;54.152;19.432;2022-10-16T12:33:41;101568.98;;;17.97;84.60
66742;BME280;53654;54.152;19.432;2022-10-16T12:36:15;101574.94;;;17.91;84.94
66742;BME280;53654;54.152;19.432;2022-10-16T12:38:51;101566.11;;;17.85;85.35
66742;BME280;53654;54.152;19.432;2022-10-16T12:41:32;101566.09;;;17.79;85.79
66742;BME280;53654;54.152;19.432;2022-10-16T12:44:01;101564.25;;;17.75;86.25
66742;BME280;53654;54.152;19.432;2022-10-16T12:51:42;101590.50;;;17.61;85.65
66742;BME280;53654;54.152;19.432;2022-10-16T12:54:20;101600.11;;;17.57;85.64
66742;BME280;53654;54.152;19.432;2022-10-16T13:05:30;101616.02;;;17.48;87.28
66742;BME280;53654;54.152;19.432;2022-10-16T13:11:14;101617.45;;;17.48;88.23
66742;BME280;53654;54.152;19.432;2022-10-16T13:14:03;101619.73;;;17.48;88.52
66742;BME280;53654;54.152;19.432;2022-10-16T13:24:53;101620.55;;;17.58;89.56
66742;BME280;53654;54.152;19.432;2022-10-16T13:30:17;101630.80;;;17.65;89.63
66742;BME280;53654;54.152;19.432;2022-10-16T13:32:48;101626.66;;;17.69;89.46
66742;BME280;53654;54.152;19.432;2022-10-16T13:35:26;101626.89;;;17.75;89.67
66742;BME280;53654;54.152;19.432;2022-10-16T13:38:15;101629.77;;;17.80;89.81
66742;BME280;53654;54.152;19.432;2022-10-16T13:41:16;101625.42;;;17.85;89.52
66742;BME280;53654;54.152;19.432;2022-10-16T13:43:52;101629.21;;;17.89;88.68
66742;BME280;53654;54.152;19.432;2022-10-16T13:46:24;101627.66;;;17.94;88.23
66742;BME280;53654;54.152;19.432;2022-10-16T13:49:04;101623.95;;;18.01;87.70
66742;BME280;53654;54.152;19.432;2022-10-16T13:51:33;101620.12;;;18.05;87.30
66742;BME280;53654;54.152;19.432;2022-10-16T13:54:01;101620.89;;;18.10;86.98
66742;BME280;53654;54.152;19.432;2022-10-16T13:56:31;101621.14;;;18.14;87.17
66742;BME280;53654;54.152;19.432;2022-10-16T13:59:05;101622.33;;;18.16;86.80
66742;BME280;53654;54.152;19.432;2022-10-16T14:01:43;101619.63;;;18.18;86.50
66742;BME280;53654;54.152;19.432;2022-10-16T14:04:12;101619.59;;;18.19;86.68
66742;BME280;53654;54.152;19.432;2022-10-16T14:06:45;101625.02;;;18.21;86.50
66742;BME280;53654;54.152;19.432;2022-10-16T14:12:08;101631.95;;;18.26;86.64
66742;BME280;53654;54.152;19.432;2022-10-16T14:14:55;101635.14;;;18.25;87.16
66742;BME280;53654;54.152;19.432;2022-10-16T14:17:33;101637.45;;;18.25;87.46
66742;BME280;53654;54.152;19.432;2022-10-16T14:20:05;101645.92;;;18.25;87.66
66742;BME280;53654;54.152;19.432;2022-10-16T14:28:01;101651.55;;;18.26;88.02
66742;BME280;53654;54.152;19.432;2022-10-16T14:30:32;101657.42;;;18.24;88.21
66742;BME280;53654;54.152;19.432;2022-10-16T14:33:18;101661.11;;;18.25;88.18
66742;BME280;53654;54.152;19.432;2022-10-16T14:36:18;101660.65;;;18.22;87.75
66742;BME280;53654;54.152;19.432;2022-10-16T14:39:05;101659.67;;;18.19;87.23
66742;BME280;53654;54.152;19.432;2022-10-16T14:41:42;101659.91;;;18.17;86.55
66742;BME280;53654;54.152;19.432;2022-10-16T14:44:12;101663.85;;;18.15;85.83
66742;BME280;53654;54.152;19.432;2022-10-16T14:46:42;101673.59;;;18.14;85.15
66742;BME280;53654;54.152;19.432;2022-10-16T14:51:41;101678.60;;;18.11;85.27
66742;BME280;53654;54.152;19.432;2022-10-16T14:54:10;101680.23;;;18.09;84.65
66742;BME280;53654;54.152;19.432;2022-10-16T14:59:24;101686.30;;;18.07;84.46
66742;BME280;53654;54.152;19.432;2022-10-16T15:01:53;101689.88;;;18.05;84.35
66742;BME280;53654;54.152;19.432;2022-10-16T15:04:21;101692.34;;;18.05;84.21
66742;BME280;53654;54.152;19.432;2022-10-16T15:06:49;101691.48;;;18.04;84.47
66742;BME280;53654;54.152;19.432;2022-10-16T15:09:17;101690.61;;;18.04;84.74
66742;BME280;53654;54.152;19.432;2022-10-16T15:11:45;101696.11;;;18.03;84.68
66742;BME280;53654;54.152;19.432;2022-10-16T15:14:14;101695.09;;;18.01;84.63
66742;BME280;53654;54.152;19.432;2022-10-16T15:16:47;101697.21;;;18.01;84.89
66742;BME280;53654;54.152;19.432;2022-10-16T15:19:15;101701.10;;;18.01;84.63
66742;BME280;53654;54.152;19.432;2022-10-16T15:21:43;101697.77;;;18.00;84.99